createdAt,value
2023-05-02T00:01:18.377Z,14.27
2023-05-02T00:03:45.355Z,11.70
2023-05-02T00:06:12.662Z,13.07
2023-05-02T00:08:39.421Z,15.40
2023-05-02T00:11:05.975Z,14.10
2023-05-02T00:13:32.598Z,15.00
2023-05-02T00:15:59.128Z,12.50
2023-05-02T00:18:25.687Z,11.88
2023-05-02T00:20:52.319Z,13.07
2023-05-02T00:23:18.941Z,13.20
2023-05-02T00:25:46.220Z,12.47
2023-05-02T00:28:13.816Z,12.98
2023-05-02T00:30:46.865Z,12.15
2023-05-02T00:33:15.042Z,13.18
2023-05-02T00:35:42.029Z,15.15
2023-05-02T00:38:08.701Z,14.87
2023-05-02T00:40:49.555Z,11.55
2023-05-02T00:43:16.550Z,11.88
2023-05-02T00:45:44.787Z,12.32
2023-05-02T00:48:12.262Z,12.48
2023-05-02T00:50:42.071Z,13.97
2023-05-02T00:53:11.863Z,13.55
2023-05-02T00:55:38.700Z,11.93
2023-05-02T00:58:12.740Z,10.95
2023-05-02T01:00:48.303Z,12.15
2023-05-02T01:03:41.023Z,11.40
2023-05-02T01:06:31.900Z,11.45
2023-05-02T01:09:22.340Z,11.50
2023-05-02T01:12:18.135Z,10.65
2023-05-02T01:14:50.788Z,10.50
2023-05-02T01:17:20.400Z,12.63
2023-05-02T01:19:57.410Z,11.40
2023-05-02T01:22:26.854Z,10.65
2023-05-02T01:25:09.047Z,11.40
2023-05-02T01:28:05.516Z,12.48
2023-05-02T01:30:34.256Z,10.50
2023-05-02T01:33:02.875Z,10.93
2023-05-02T01:35:32.793Z,12.35
2023-05-02T01:38:02.646Z,12.38
2023-05-02T01:40:30.215Z,13.02
2023-05-02T01:42:57.677Z,13.03
2023-05-02T01:45:25.854Z,13.52
2023-05-02T01:47:54.136Z,13.48
2023-05-02T01:50:24.734Z,13.10
2023-05-02T01:52:55.749Z,14.45
2023-05-02T01:55:24.048Z,13.47
2023-05-02T01:57:54.419Z,13.02
2023-05-02T02:00:23.221Z,12.82
2023-05-02T02:02:51.913Z,13.80
2023-05-02T02:05:19.787Z,14.02
2023-05-02T02:07:46.596Z,14.50
2023-05-02T02:10:13.365Z,12.77
2023-05-02T02:12:53.203Z,12.95
2023-05-02T02:15:23.900Z,16.52
2023-05-02T02:17:58.984Z,14.57
2023-05-02T02:20:29.464Z,13.37
2023-05-02T02:22:58.005Z,13.65
2023-05-02T02:25:26.979Z,12.70
2023-05-02T02:27:54.161Z,12.93
2023-05-02T02:30:20.928Z,13.25
2023-05-02T02:32:47.458Z,12.47
2023-05-02T02:35:14.181Z,11.82
2023-05-02T02:38:29.454Z,11.65
2023-05-02T02:41:25.200Z,11.40
2023-05-02T02:44:05.848Z,12.48
2023-05-02T02:46:47.711Z,12.63
2023-05-02T02:49:28.818Z,11.48
2023-05-02T02:52:13.654Z,11.10
2023-05-02T02:55:06.727Z,10.93
2023-05-02T02:57:48.171Z,10.13
2023-05-02T03:00:24.781Z,11.00
2023-05-02T03:02:53.301Z,10.30
2023-05-02T03:05:22.755Z,10.85
2023-05-02T03:07:51.081Z,11.85
2023-05-02T03:10:18.016Z,7.55
2023-05-02T03:12:44.751Z,7.90
2023-05-02T03:15:45.455Z,8.65
2023-05-02T03:18:12.789Z,7.63
2023-05-02T03:20:39.891Z,8.60
2023-05-02T03:23:06.503Z,6.70
2023-05-02T03:25:33.120Z,8.30
2023-05-02T03:27:59.914Z,6.85
2023-05-02T03:30:26.681Z,6.13
2023-05-02T03:32:53.334Z,6.32
2023-05-02T03:35:20.029Z,6.50
2023-05-02T03:37:49.106Z,6.60
2023-05-02T03:40:16.022Z,5.50
2023-05-02T03:42:42.608Z,5.45
2023-05-02T03:45:21.230Z,5.95
2023-05-02T03:47:49.763Z,6.30
2023-05-02T03:50:16.448Z,5.30
2023-05-02T03:52:46.365Z,6.13
2023-05-02T03:55:13.702Z,5.55
2023-05-02T03:57:40.331Z,6.85
2023-05-02T04:00:08.032Z,4.60
2023-05-02T04:02:49.080Z,5.43
2023-05-02T04:05:19.626Z,6.45
2023-05-02T04:07:48.240Z,5.40
2023-05-02T04:10:17.930Z,5.13
2023-05-02T04:12:51.175Z,4.50
2023-05-02T04:15:18.939Z,4.83
2023-05-02T04:17:47.350Z,5.57
2023-05-02T04:20:15.712Z,4.80
2023-05-02T04:22:47.911Z,4.03
2023-05-02T04:25:15.046Z,6.32
2023-05-02T04:27:42.408Z,4.80
2023-05-02T04:30:13.436Z,5.38
2023-05-02T04:32:42.995Z,5.03
2023-05-02T04:35:10.828Z,5.30
2023-05-02T04:37:38.225Z,5.93
2023-05-02T04:40:06.592Z,5.63
2023-05-02T04:42:33.243Z,5.78
2023-05-02T04:45:12.429Z,6.05
2023-05-02T04:47:39.949Z,6.32
2023-05-02T04:50:07.541Z,5.22
2023-05-02T04:52:35.526Z,5.40
2023-05-02T04:55:02.102Z,5.63
2023-05-02T04:57:28.921Z,4.80
2023-05-02T04:59:59.331Z,5.20
2023-05-02T05:02:27.167Z,5.55
2023-05-02T05:04:55.030Z,5.70
2023-05-02T05:07:22.419Z,5.40
2023-05-02T05:09:53.385Z,5.57
2023-05-02T05:12:21.899Z,6.88
2023-05-02T05:14:49.875Z,6.65
2023-05-02T05:17:17.150Z,8.20
2023-05-02T05:19:44.537Z,7.03
2023-05-02T05:22:11.146Z,6.35
2023-05-02T05:24:38.186Z,7.13
2023-05-02T05:27:06.046Z,7.28
2023-05-02T05:29:35.656Z,7.27
2023-05-02T05:32:02.936Z,5.60
2023-05-02T05:34:29.716Z,6.53
2023-05-02T05:36:58.959Z,8.88
2023-05-02T05:39:25.885Z,6.97
2023-05-02T05:41:55.158Z,8.10
2023-05-02T05:44:23.187Z,6.72
2023-05-02T05:46:49.821Z,6.18
2023-05-02T05:49:17.613Z,6.65
2023-05-02T05:51:45.083Z,6.03
2023-05-02T05:54:12.291Z,8.03
2023-05-02T05:56:39.322Z,7.68
2023-05-02T05:59:10.973Z,6.35
2023-05-02T06:01:38.114Z,6.40
2023-05-02T06:04:05.823Z,8.30
2023-05-02T06:06:35.301Z,7.13
2023-05-02T06:09:03.074Z,6.95
2023-05-02T06:11:30.690Z,6.70
2023-05-02T06:13:57.311Z,6.32
2023-05-02T06:16:24.023Z,7.47
2023-05-02T06:18:52.838Z,10.50
2023-05-02T06:21:19.732Z,8.35
2023-05-02T06:23:46.556Z,8.48
2023-05-02T06:26:13.200Z,9.02
2023-05-02T06:28:39.829Z,11.10
2023-05-02T06:31:06.578Z,11.77
2023-05-02T06:33:34.232Z,11.10
2023-05-02T06:36:02.034Z,10.85
2023-05-02T06:38:28.981Z,11.52
2023-05-02T06:40:55.825Z,12.88
2023-05-02T06:43:22.489Z,12.40
2023-05-02T06:45:49.253Z,12.23
2023-05-02T06:48:15.953Z,12.05
2023-05-02T06:50:42.761Z,14.88
2023-05-02T06:53:09.410Z,13.90
2023-05-02T06:55:36.095Z,10.83
2023-05-02T06:58:02.788Z,14.75
2023-05-02T07:00:29.408Z,13.75
2023-05-02T07:02:56.495Z,12.35
2023-05-02T07:05:23.290Z,11.90
2023-05-02T07:07:49.936Z,10.33
2023-05-02T07:10:16.558Z,11.23
2023-05-02T07:12:43.199Z,10.35
2023-05-02T07:15:10.613Z,11.13
2023-05-02T07:17:37.377Z,10.88
2023-05-02T07:20:06.677Z,13.27
2023-05-02T07:22:33.561Z,14.43
2023-05-02T07:25:02.529Z,12.20
2023-05-02T07:27:29.159Z,11.57
2023-05-02T07:29:55.765Z,11.02
2023-05-02T07:32:22.603Z,11.70
2023-05-02T07:34:49.300Z,14.32
2023-05-02T07:37:15.839Z,13.60
2023-05-02T07:39:42.524Z,13.13
2023-05-02T07:42:09.171Z,14.10
2023-05-02T07:44:36.836Z,14.60
2023-05-02T07:47:03.487Z,13.23
2023-05-02T07:49:31.316Z,12.60
2023-05-02T07:51:58.165Z,14.07
2023-05-02T07:54:27.776Z,12.48
2023-05-02T07:56:56.822Z,15.17
2023-05-02T07:59:23.540Z,13.93
2023-05-02T08:01:50.186Z,13.50
2023-05-02T08:04:16.939Z,13.52
2023-05-02T08:06:45.305Z,13.05
2023-05-02T08:09:12.018Z,12.70
2023-05-02T08:11:38.615Z,12.10
2023-05-02T08:14:05.222Z,12.55
2023-05-02T08:16:31.981Z,13.07
2023-05-02T08:18:58.677Z,12.10
2023-05-02T08:21:25.335Z,12.77
2023-05-02T08:23:51.882Z,12.07
2023-05-02T08:26:19.095Z,13.55
2023-05-02T08:28:45.920Z,11.10
2023-05-02T08:31:12.684Z,13.75
2023-05-02T08:33:39.373Z,13.37
2023-05-02T08:36:16.416Z,18.63
2023-05-02T08:38:44.377Z,12.93
2023-05-02T08:41:18.570Z,12.63
2023-05-02T08:43:48.173Z,14.40
2023-05-02T08:46:17.485Z,12.63
2023-05-02T08:48:48.233Z,14.40
2023-05-02T08:51:16.726Z,12.65
2023-05-02T08:53:44.023Z,13.48
2023-05-02T08:56:12.437Z,12.85
2023-05-02T08:58:40.536Z,11.30
2023-05-02T09:01:14.896Z,13.00
2023-05-02T09:03:44.019Z,13.85
2023-05-02T09:06:12.963Z,12.15
2023-05-02T09:08:43.104Z,11.60
2023-05-02T09:11:11.257Z,12.27
2023-05-02T09:13:42.062Z,13.30
2023-05-02T09:16:27.168Z,14.63
2023-05-02T09:18:58.667Z,13.57
2023-05-02T09:21:34.917Z,15.32
2023-05-02T09:24:03.428Z,12.83
2023-05-02T09:26:32.166Z,14.60
2023-05-02T09:29:04.040Z,15.13
2023-05-02T09:31:54.770Z,17.02
2023-05-02T09:34:22.287Z,14.68
2023-05-02T09:36:53.745Z,14.20
2023-05-02T09:39:26.362Z,12.90
2023-05-02T09:41:53.459Z,15.90
2023-05-02T09:44:23.794Z,13.65
2023-05-02T09:46:53.200Z,13.52
2023-05-02T09:49:38.406Z,17.50
2023-05-02T09:52:15.716Z,15.00
2023-05-02T09:54:42.703Z,15.82
2023-05-02T09:57:11.023Z,13.60
2023-05-02T09:59:39.630Z,13.93
2023-05-02T10:02:09.526Z,13.80
2023-05-02T10:04:36.718Z,13.80
2023-05-02T10:07:03.814Z,14.13
2023-05-02T10:09:33.368Z,13.75
2023-05-02T10:12:06.657Z,12.60
2023-05-02T10:14:39.791Z,13.53
2023-05-02T10:17:21.462Z,14.98
2023-05-02T10:19:57.840Z,15.20
2023-05-02T10:22:25.462Z,15.10
2023-05-02T10:24:53.812Z,14.30
2023-05-02T10:27:20.910Z,12.87
2023-05-02T10:29:47.724Z,14.73
2023-05-02T10:32:16.980Z,13.48
2023-05-02T10:34:44.375Z,14.23
2023-05-02T10:37:12.429Z,13.02
2023-05-02T10:39:39.068Z,14.50
2023-05-02T10:42:06.460Z,16.65
2023-05-02T10:44:38.949Z,16.50
2023-05-02T10:47:35.610Z,14.15
2023-05-02T10:50:03.599Z,14.00
2023-05-02T10:52:34.248Z,13.10
2023-05-02T10:55:22.781Z,13.50
2023-05-02T10:58:01.077Z,15.07
2023-05-02T11:00:33.528Z,13.68
2023-05-02T11:03:01.038Z,13.48
2023-05-02T11:05:28.349Z,13.13
2023-05-02T11:08:16.827Z,15.23
2023-05-02T11:10:46.070Z,12.85
2023-05-02T11:13:12.876Z,13.57
2023-05-02T11:15:42.100Z,13.40
2023-05-02T11:18:12.710Z,14.90
2023-05-02T11:20:40.978Z,13.13
2023-05-02T11:23:16.876Z,17.75
2023-05-02T11:25:44.617Z,13.50
2023-05-02T11:28:41.701Z,14.50
2023-05-02T11:31:35.318Z,15.63
2023-05-02T11:34:03.350Z,14.40
2023-05-02T11:36:34.840Z,16.08
2023-05-02T11:39:02.686Z,15.80
2023-05-02T11:41:44.447Z,16.95
2023-05-02T11:44:11.162Z,16.43
2023-05-02T11:46:38.838Z,13.60
2023-05-02T11:49:07.641Z,16.40
2023-05-02T11:51:36.167Z,16.13
2023-05-02T11:54:03.881Z,16.10
2023-05-02T11:56:30.504Z,15.87
2023-05-02T11:59:01.582Z,15.43
2023-05-02T12:01:28.265Z,16.05
2023-05-02T12:04:08.575Z,15.70
2023-05-02T12:06:35.937Z,15.60
2023-05-02T12:09:11.023Z,16.97
2023-05-02T12:11:38.609Z,16.38
2023-05-02T12:14:06.622Z,16.35
2023-05-02T12:16:33.587Z,16.60
2023-05-02T12:19:01.080Z,15.65
2023-05-02T12:21:29.880Z,16.73
2023-05-02T12:23:57.412Z,17.73
2023-05-02T12:26:32.981Z,18.08
2023-05-02T12:29:00.867Z,16.00
2023-05-02T12:31:29.083Z,16.73
2023-05-02T12:33:57.829Z,17.87
2023-05-02T12:36:24.942Z,20.40
2023-05-02T12:38:54.933Z,19.10
2023-05-02T12:41:51.562Z,19.55
2023-05-02T12:44:36.330Z,23.63
2023-05-02T12:47:02.976Z,24.50
2023-05-02T12:49:29.917Z,20.25
2023-05-02T12:51:56.879Z,17.27
2023-05-02T12:54:23.875Z,19.98
2023-05-02T12:56:52.162Z,19.08
2023-05-02T12:59:32.186Z,19.87
2023-05-02T13:01:59.976Z,20.70
2023-05-02T13:04:41.110Z,17.83
2023-05-02T13:07:08.223Z,18.33
2023-05-02T13:09:34.820Z,18.23
2023-05-02T13:12:03.614Z,18.07
2023-05-02T13:14:30.417Z,18.02
2023-05-02T13:16:57.179Z,17.42
2023-05-02T13:19:23.904Z,16.58
2023-05-02T13:21:50.479Z,16.85
2023-05-02T13:24:17.563Z,16.77
2023-05-02T13:26:44.402Z,17.30
2023-05-02T13:29:12.653Z,16.67
2023-05-02T13:31:39.255Z,16.30
2023-05-02T13:34:06.089Z,18.05
2023-05-02T13:36:32.734Z,15.67
2023-05-02T13:38:59.924Z,15.57
2023-05-02T13:41:29.511Z,14.65
2023-05-02T13:43:56.895Z,15.88
2023-05-02T13:46:23.689Z,15.60
2023-05-02T13:48:50.509Z,17.33
2023-05-02T13:51:17.095Z,15.80
2023-05-02T13:53:43.714Z,20.23
2023-05-02T13:56:10.357Z,17.83
2023-05-02T13:58:36.974Z,14.88
2023-05-02T14:01:04.433Z,17.03
2023-05-02T14:03:31.382Z,18.45
2023-05-02T14:05:58.004Z,17.02
2023-05-02T14:08:24.572Z,13.73
2023-05-02T14:10:51.322Z,15.32
2023-05-02T14:13:17.911Z,16.27
2023-05-02T14:15:44.506Z,18.15
2023-05-02T14:18:11.138Z,16.67
2023-05-02T14:20:37.756Z,15.57
2023-05-02T14:23:05.481Z,15.75
2023-05-02T14:25:34.078Z,17.67
2023-05-02T14:28:00.787Z,29.00
2023-05-02T14:30:27.554Z,17.60
2023-05-02T14:32:54.270Z,20.63
2023-05-02T14:35:20.977Z,22.95
2023-05-02T14:37:47.492Z,19.40
2023-05-02T14:40:14.397Z,18.15
2023-05-02T14:42:41.670Z,20.55
2023-05-02T14:45:09.429Z,19.02
2023-05-02T14:47:36.654Z,17.10
2023-05-02T14:50:04.688Z,15.73
2023-05-02T14:52:31.792Z,23.30
2023-05-02T14:55:02.526Z,28.08
2023-05-02T14:57:29.221Z,29.90
2023-05-02T14:59:56.031Z,28.67
2023-05-02T15:02:22.837Z,23.10
2023-05-02T15:04:49.861Z,22.60
2023-05-02T15:07:17.047Z,21.05
2023-05-02T15:09:46.130Z,20.45
2023-05-02T15:12:12.748Z,22.20
2023-05-02T15:14:39.359Z,19.33
2023-05-02T15:17:06.049Z,21.83
2023-05-02T15:19:32.844Z,23.27
2023-05-02T15:21:59.463Z,19.08
2023-05-02T15:24:26.205Z,20.63
2023-05-02T15:26:53.101Z,23.50
2023-05-02T15:29:19.716Z,16.85
2023-05-02T15:31:46.400Z,17.55
2023-05-02T15:34:13.075Z,16.52
2023-05-02T15:36:40.676Z,17.48
2023-05-02T15:39:07.465Z,20.17
2023-05-02T15:41:34.145Z,23.33
2023-05-02T15:44:01.167Z,21.42
2023-05-02T15:46:27.862Z,20.02
2023-05-02T15:48:54.586Z,21.45
2023-05-02T15:51:21.356Z,20.13
2023-05-02T15:53:52.135Z,18.95
2023-05-02T15:56:20.335Z,20.40
2023-05-02T15:58:47.002Z,18.23
2023-05-02T16:01:13.668Z,24.95
2023-05-02T16:03:40.432Z,23.20
2023-05-02T16:06:07.648Z,18.83
2023-05-02T16:08:34.520Z,17.75
2023-05-02T16:11:01.885Z,19.98
2023-05-02T16:13:28.660Z,16.92
2023-05-02T16:15:56.195Z,17.50
2023-05-02T16:18:28.447Z,21.67
2023-05-02T16:20:56.984Z,27.50
2023-05-02T16:23:24.400Z,27.58
2023-05-02T16:25:57.248Z,30.27
2023-05-02T16:28:23.900Z,25.47
2023-05-02T16:30:51.019Z,21.92
2023-05-02T16:33:17.656Z,23.10
2023-05-02T16:35:44.296Z,20.95
2023-05-02T16:38:10.826Z,20.05
2023-05-02T16:40:37.458Z,20.40
2023-05-02T16:43:04.005Z,20.48
2023-05-02T16:45:31.597Z,18.65
2023-05-02T16:47:58.437Z,19.33
2023-05-02T16:50:25.044Z,20.92
2023-05-02T16:52:51.892Z,18.60
2023-05-02T16:55:18.659Z,17.27
2023-05-02T16:57:45.249Z,20.77
2023-05-02T17:00:14.754Z,18.80
2023-05-02T17:02:41.632Z,20.30
2023-05-02T17:05:09.636Z,16.77
2023-05-02T17:07:36.230Z,15.98
2023-05-02T17:10:04.241Z,18.15
2023-05-02T17:12:31.616Z,18.52
2023-05-02T17:14:58.508Z,17.55
2023-05-02T17:17:25.307Z,18.60
2023-05-02T17:19:52.207Z,18.52
2023-05-02T17:22:19.075Z,18.23
2023-05-02T17:24:48.373Z,18.67
2023-05-02T17:27:15.362Z,22.60
2023-05-02T17:29:42.133Z,22.70
2023-05-02T17:32:08.797Z,26.33
2023-05-02T17:34:36.620Z,23.50
2023-05-02T17:37:03.363Z,26.23
2023-05-02T17:39:29.912Z,35.45
2023-05-02T17:41:56.500Z,33.40
2023-05-02T17:44:23.528Z,29.65
2023-05-02T17:46:50.166Z,23.77
2023-05-02T17:49:16.906Z,22.35
2023-05-02T17:51:43.550Z,22.65
2023-05-02T17:54:10.548Z,19.23
2023-05-02T17:56:37.418Z,21.73
2023-05-02T17:59:07.069Z,19.80
2023-05-02T18:01:33.696Z,18.48
2023-05-02T18:04:00.924Z,18.73
2023-05-02T18:06:28.734Z,17.70
2023-05-02T18:08:55.975Z,19.90
2023-05-02T18:11:24.225Z,20.77
2023-05-02T18:13:51.406Z,22.23
2023-05-02T18:16:18.474Z,20.05
2023-05-02T18:18:45.390Z,21.20
2023-05-02T18:21:12.290Z,23.10
2023-05-02T18:23:40.126Z,30.02
2023-05-02T18:26:13.097Z,18.70
2023-05-02T18:28:42.539Z,15.13
2023-05-02T18:31:17.225Z,16.53
2023-05-02T18:33:43.956Z,15.82
2023-05-02T18:36:11.630Z,18.08
2023-05-02T18:38:38.830Z,14.30
2023-05-02T18:41:05.402Z,15.27
2023-05-02T18:43:33.527Z,15.37
2023-05-02T18:46:00.297Z,15.95
2023-05-02T18:48:27.156Z,14.02
2023-05-02T18:50:57.065Z,14.90
2023-05-02T18:53:26.144Z,21.92
2023-05-02T18:55:53.845Z,16.77
2023-05-02T18:58:21.584Z,11.77
2023-05-02T19:00:48.384Z,14.35
2023-05-02T19:03:15.101Z,14.48
2023-05-02T19:05:43.174Z,14.73
2023-05-02T19:08:09.942Z,14.13
2023-05-02T19:10:36.484Z,13.68
2023-05-02T19:13:03.301Z,17.23
2023-05-02T19:15:29.978Z,17.70
2023-05-02T19:17:57.086Z,16.77
2023-05-02T19:20:23.649Z,13.97
2023-05-02T19:22:52.882Z,16.42
2023-05-02T19:25:22.981Z,13.82
2023-05-02T19:27:49.860Z,15.13
2023-05-02T19:30:16.659Z,16.40
2023-05-02T19:32:43.318Z,15.33
2023-05-02T19:35:10.133Z,16.23
2023-05-02T19:37:36.762Z,15.38
2023-05-02T19:40:03.586Z,15.25
2023-05-02T19:42:30.385Z,11.85
2023-05-02T19:44:57.080Z,12.33
2023-05-02T19:47:23.794Z,13.07
2023-05-02T19:49:51.391Z,12.48
2023-05-02T19:52:18.267Z,14.85
2023-05-02T19:54:44.862Z,11.98
2023-05-02T19:57:11.474Z,12.77
2023-05-02T19:59:38.117Z,12.60
2023-05-02T20:02:04.807Z,13.15
2023-05-02T20:04:31.414Z,13.45
2023-05-02T20:06:58.477Z,23.60
2023-05-02T20:09:25.216Z,17.00
2023-05-02T20:11:51.876Z,13.20
2023-05-02T20:14:18.802Z,15.10
2023-05-02T20:16:46.244Z,17.83
2023-05-02T20:19:14.372Z,13.43
2023-05-02T20:21:41.229Z,15.30
2023-05-02T20:24:08.248Z,13.55
2023-05-02T20:26:35.819Z,13.57
2023-05-02T20:29:04.002Z,12.18
2023-05-02T20:31:30.615Z,13.52
2023-05-02T20:33:57.302Z,13.17
2023-05-02T20:36:23.966Z,13.00
2023-05-02T20:38:50.548Z,11.43
2023-05-02T20:41:17.695Z,13.40
2023-05-02T20:43:44.978Z,13.50
2023-05-02T20:46:13.383Z,13.50
2023-05-02T20:48:40.247Z,13.93
2023-05-02T20:51:07.926Z,15.57
2023-05-02T20:53:38.783Z,13.00
2023-05-02T20:56:06.157Z,12.95
2023-05-02T20:58:32.818Z,14.73
2023-05-02T21:00:59.802Z,12.10
2023-05-02T21:03:27.271Z,13.93
2023-05-02T21:05:55.570Z,12.75
2023-05-02T21:08:23.950Z,13.27
2023-05-02T21:10:51.367Z,12.13
2023-05-02T21:13:18.078Z,14.55
2023-05-02T21:15:44.809Z,15.18
2023-05-02T21:18:11.781Z,14.57
2023-05-02T21:20:39.617Z,14.88
2023-05-02T21:23:06.428Z,15.90
2023-05-02T21:25:33.310Z,14.57
2023-05-02T21:27:59.952Z,17.40
2023-05-02T21:30:27.514Z,14.20
2023-05-02T21:32:54.252Z,15.90
2023-05-02T21:35:20.938Z,17.17
2023-05-02T21:37:47.529Z,15.88
2023-05-02T21:40:14.189Z,16.00
2023-05-02T21:42:40.981Z,15.88
2023-05-02T21:45:08.285Z,18.08
2023-05-02T21:47:34.944Z,17.67
2023-05-02T21:50:01.850Z,14.45
2023-05-02T21:52:28.763Z,16.50
2023-05-02T21:54:57.400Z,15.65
2023-05-02T21:57:24.080Z,16.05
2023-05-02T21:59:50.816Z,18.67
2023-05-02T22:02:17.510Z,16.17
2023-05-02T22:04:47.409Z,16.30
2023-05-02T22:07:14.225Z,15.57
2023-05-02T22:09:40.761Z,16.02
2023-05-02T22:12:07.602Z,15.20
2023-05-02T22:14:44.562Z,15.13
2023-05-02T22:17:13.228Z,16.23
2023-05-02T22:19:40.555Z,17.55
2023-05-02T22:22:07.295Z,19.00
2023-05-02T22:24:34.005Z,19.20
2023-05-02T22:27:00.851Z,19.10
2023-05-02T22:29:27.496Z,17.58
2023-05-02T22:31:54.204Z,17.05
2023-05-02T22:34:20.858Z,19.75
2023-05-02T22:36:47.470Z,20.30
2023-05-02T22:39:15.660Z,21.50
2023-05-02T22:41:43.163Z,21.42
2023-05-02T22:44:10.927Z,23.50
2023-05-02T22:46:38.630Z,23.13
2023-05-02T22:49:07.622Z,23.47
2023-05-02T22:51:34.288Z,27.02
2023-05-02T22:54:01.912Z,24.05
2023-05-02T22:56:28.536Z,22.73
2023-05-02T22:58:55.120Z,25.83
2023-05-02T23:01:21.850Z,27.43
2023-05-02T23:03:49.382Z,24.48
2023-05-02T23:06:16.475Z,27.95
2023-05-02T23:08:43.194Z,25.60
2023-05-02T23:11:09.782Z,29.40
2023-05-02T23:13:36.377Z,24.40
2023-05-02T23:16:04.374Z,23.70
2023-05-02T23:18:31.082Z,25.73
2023-05-02T23:20:57.783Z,25.35
2023-05-02T23:23:24.361Z,24.33
2023-05-02T23:25:51.345Z,20.60
2023-05-02T23:28:18.038Z,22.20
2023-05-02T23:30:45.265Z,21.10
2023-05-02T23:33:12.025Z,22.80
2023-05-02T23:35:38.720Z,22.38
2023-05-02T23:38:07.837Z,21.23
2023-05-02T23:40:34.745Z,18.73
2023-05-02T23:43:01.620Z,17.10
2023-05-02T23:45:28.199Z,17.70
2023-05-02T23:47:54.983Z,15.80
2023-05-02T23:50:21.568Z,15.07
2023-05-02T23:52:48.141Z,13.90
2023-05-02T23:55:14.863Z,15.40
2023-05-02T23:57:41.443Z,14.30
